Byars, Oklahoma
Current Conditions -  °F | °C
As of 6:15 AM on Sunday 23 Nov 2014 (Local Time) from KPVJ Reporting Station
Clear Clear  
Wind Chill: 54°   Ceiling: Unl
Heat Index: 54°   Visibility: 7mi
Dew Point: 53°   Wind: 7mph
Humidity: 97%   Direction: 160°SSE
Pressure: 29.52"   Gusts: NA
Location:  34.87°N, 97.05°W
Report Text: KPVJ 231215Z AUTO 16006KT 7SM CLR 12/12 A2952 RMK AO2 T01200115
Loading
Personal Weather Stations






























Interactive Weather Map New forecast layout! Learn more

10-Day Weather Forecast

Advertisements
Track Severe Weather on mobile